createdAt,value
2023-02-01T00:02:15.068Z,5.68
2023-02-01T00:04:43.075Z,5.58
2023-02-01T00:07:14.202Z,5.54
2023-02-01T00:09:42.293Z,5.46
2023-02-01T00:12:10.172Z,5.47
2023-02-01T00:14:39.621Z,5.44
2023-02-01T00:17:08.884Z,5.50
2023-02-01T00:19:37.213Z,5.43
2023-02-01T00:22:05.182Z,5.33
2023-02-01T00:24:33.162Z,5.37
2023-02-01T00:27:01.091Z,5.36
2023-02-01T00:29:29.065Z,5.47
2023-02-01T00:31:57.059Z,5.37
2023-02-01T00:34:26.364Z,5.36
2023-02-01T00:36:54.360Z,5.29
2023-02-01T00:39:22.279Z,5.28
2023-02-01T00:41:50.226Z,5.23
2023-02-01T00:44:18.772Z,5.20
2023-02-01T00:46:46.813Z,5.40
2023-02-01T00:49:14.769Z,5.36
2023-02-01T00:51:44.090Z,5.20
2023-02-01T00:54:12.073Z,5.19
2023-02-01T00:56:40.034Z,5.12
2023-02-01T00:59:07.943Z,5.30
2023-02-01T01:01:35.872Z,5.17
2023-02-01T01:04:04.490Z,5.16
2023-02-01T01:06:33.103Z,5.45
2023-02-01T01:09:03.505Z,5.21
2023-02-01T01:11:32.143Z,5.41
2023-02-01T01:14:00.871Z,5.42
2023-02-01T01:16:29.676Z,5.45
2023-02-01T01:18:57.732Z,5.38
2023-02-01T01:21:25.665Z,5.42
2023-02-01T01:23:53.936Z,5.43
2023-02-01T01:26:24.656Z,5.49
2023-02-01T01:28:52.824Z,5.52
2023-02-01T01:31:21.733Z,5.52
2023-02-01T01:33:50.686Z,5.39
2023-02-01T01:36:18.718Z,5.44
2023-02-01T01:38:46.753Z,5.36
2023-02-01T01:41:16.274Z,5.32
2023-02-01T01:43:53.844Z,5.34
2023-02-01T01:46:22.214Z,5.48
2023-02-01T01:48:51.817Z,5.41
2023-02-01T01:51:20.393Z,5.45
2023-02-01T01:53:52.024Z,5.40
2023-02-01T01:56:19.961Z,5.44
2023-02-01T01:58:47.879Z,5.24
2023-02-01T02:01:17.221Z,5.28
2023-02-01T02:03:45.406Z,5.37
2023-02-01T02:06:15.745Z,5.22
2023-02-01T02:08:43.993Z,5.24
2023-02-01T02:11:13.472Z,5.21
2023-02-01T02:13:42.336Z,5.22
2023-02-01T02:16:27.221Z,5.11
2023-02-01T02:18:59.993Z,4.95
2023-02-01T02:21:37.622Z,5.15
2023-02-01T02:24:49.889Z,5.11
2023-02-01T02:27:25.784Z,5.12
2023-02-01T02:30:35.232Z,5.05
2023-02-01T02:33:20.529Z,5.08
2023-02-01T02:35:49.203Z,5.05
2023-02-01T02:38:20.487Z,4.93
2023-02-01T02:40:51.015Z,4.93
2023-02-01T02:43:40.398Z,4.95
2023-02-01T02:46:27.904Z,4.68
2023-02-01T02:49:01.565Z,4.83
2023-02-01T02:51:48.435Z,4.76
2023-02-01T02:54:34.755Z,4.64
2023-02-01T02:57:20.760Z,4.65
2023-02-01T03:00:05.977Z,4.67
2023-02-01T03:02:51.742Z,4.60
2023-02-01T03:05:21.766Z,4.67
2023-02-01T03:07:57.755Z,4.54
2023-02-01T03:10:29.009Z,4.63
2023-02-01T03:12:59.837Z,4.64
2023-02-01T03:15:31.776Z,4.65
2023-02-01T03:17:59.805Z,4.66
2023-02-01T03:20:29.065Z,4.69
2023-02-01T03:22:57.218Z,4.76
2023-02-01T03:25:26.908Z,4.80
2023-02-01T03:27:56.555Z,4.73
2023-02-01T03:30:26.899Z,4.77
2023-02-01T03:33:00.687Z,4.72
2023-02-01T03:35:32.676Z,4.78
2023-02-01T03:38:04.587Z,4.69
2023-02-01T03:40:33.630Z,4.81
2023-02-01T03:43:01.580Z,4.77
2023-02-01T03:45:30.863Z,4.77
2023-02-01T03:47:59.643Z,4.58
2023-02-01T03:50:27.538Z,4.54
2023-02-01T03:52:58.720Z,4.66
2023-02-01T03:55:28.319Z,4.64
2023-02-01T03:57:59.472Z,4.71
2023-02-01T04:00:27.977Z,4.74
2023-02-01T04:02:56.167Z,4.62
2023-02-01T04:05:24.188Z,4.67
2023-02-01T04:07:52.173Z,4.64
2023-02-01T04:10:22.275Z,4.56
2023-02-01T04:12:50.364Z,4.77
2023-02-01T04:15:18.375Z,4.80
2023-02-01T04:17:46.617Z,4.82
2023-02-01T04:20:14.565Z,4.66
2023-02-01T04:22:42.456Z,4.69
2023-02-01T04:25:11.651Z,4.58
2023-02-01T04:30:10.841Z,4.57
2023-02-01T04:32:38.848Z,4.60
2023-02-01T04:35:07.526Z,4.48
2023-02-01T04:37:35.481Z,4.37
2023-02-01T04:40:04.724Z,4.35
2023-02-01T04:42:32.889Z,4.48
2023-02-01T04:45:02.309Z,4.51
2023-02-01T04:47:30.548Z,4.61
2023-02-01T04:49:58.469Z,4.65
2023-02-01T04:52:26.411Z,4.76
2023-02-01T04:54:59.404Z,4.69
2023-02-01T04:57:27.481Z,4.43
2023-02-01T04:59:55.429Z,4.63
2023-02-01T05:02:25.408Z,4.61
2023-02-01T05:04:53.397Z,4.51
2023-02-01T05:07:21.480Z,4.58
2023-02-01T05:09:49.534Z,4.66
2023-02-01T05:12:34.823Z,4.79
2023-02-01T05:15:03.136Z,4.69
2023-02-01T05:17:32.628Z,4.73
2023-02-01T05:20:00.559Z,4.82
2023-02-01T05:22:28.817Z,4.80
2023-02-01T05:24:56.825Z,4.80
2023-02-01T05:27:24.746Z,4.83
2023-02-01T05:29:52.959Z,4.85
2023-02-01T05:32:22.825Z,4.92
2023-02-01T05:34:52.734Z,4.89
2023-02-01T05:37:21.280Z,4.86
2023-02-01T05:39:49.433Z,4.83
2023-02-01T05:42:17.680Z,4.87
2023-02-01T05:44:45.836Z,4.82
2023-02-01T05:47:14.124Z,4.83
2023-02-01T05:49:42.051Z,4.91
2023-02-01T05:52:11.366Z,4.85
2023-02-01T05:54:39.292Z,4.97
2023-02-01T05:57:07.352Z,4.96
2023-02-01T05:59:35.323Z,4.82
2023-02-01T06:02:03.299Z,4.85
2023-02-01T06:04:31.249Z,4.80
2023-02-01T06:06:59.229Z,4.78
2023-02-01T06:09:29.333Z,4.57
2023-02-01T06:11:57.612Z,4.78
2023-02-01T06:14:26.073Z,4.80
2023-02-01T06:17:00.273Z,4.86
2023-02-01T06:19:29.111Z,4.82
2023-02-01T06:21:57.074Z,4.81
2023-02-01T06:24:29.883Z,4.76
2023-02-01T06:26:59.726Z,4.82
2023-02-01T06:29:27.956Z,4.92
2023-02-01T06:31:55.908Z,4.80
2023-02-01T06:34:24.825Z,4.85
2023-02-01T06:36:52.822Z,4.77
2023-02-01T06:39:21.486Z,4.75
2023-02-01T06:41:49.643Z,4.68
2023-02-01T06:44:21.937Z,4.75
2023-02-01T06:46:49.915Z,4.85
2023-02-01T06:49:18.137Z,4.89
2023-02-01T06:51:46.154Z,4.85
2023-02-01T06:54:18.188Z,4.87
2023-02-01T06:57:00.126Z,4.73
2023-02-01T06:59:35.906Z,4.73
2023-02-01T07:02:04.099Z,4.84
2023-02-01T07:04:32.312Z,4.73
2023-02-01T07:07:00.255Z,4.75
2023-02-01T07:09:28.209Z,4.72
2023-02-01T07:11:56.136Z,4.79
2023-02-01T07:14:24.051Z,4.63
2023-02-01T07:16:53.404Z,4.75
2023-02-01T07:19:21.709Z,4.76
2023-02-01T07:21:49.692Z,4.71
2023-02-01T07:24:17.681Z,4.78
2023-02-01T07:26:45.829Z,4.64
2023-02-01T07:29:13.782Z,4.74
2023-02-01T07:31:43.606Z,4.70
2023-02-01T07:34:13.187Z,4.77
2023-02-01T07:36:41.462Z,4.70
2023-02-01T07:39:09.445Z,4.79
2023-02-01T07:41:37.423Z,4.72
2023-02-01T07:44:05.473Z,4.74
2023-02-01T07:46:33.800Z,4.77
2023-02-01T07:49:04.597Z,4.72
2023-02-01T07:51:37.510Z,4.62
2023-02-01T07:54:27.209Z,4.70
2023-02-01T07:57:11.947Z,4.73
2023-02-01T08:00:01.214Z,4.67
2023-02-01T08:02:28.188Z,4.68
2023-02-01T08:04:56.115Z,4.73
2023-02-01T08:07:26.024Z,4.81
2023-02-01T08:09:54.010Z,4.83
2023-02-01T08:12:21.927Z,4.71
2023-02-01T08:14:49.924Z,4.89
2023-02-01T08:17:17.960Z,4.82
2023-02-01T08:19:46.198Z,4.86
2023-02-01T08:22:14.268Z,4.84
2023-02-01T08:24:43.897Z,4.81
2023-02-01T08:27:13.356Z,4.93
2023-02-01T08:29:41.404Z,4.86
2023-02-01T08:32:09.411Z,4.68
2023-02-01T08:34:37.379Z,4.76
2023-02-01T08:37:05.651Z,4.93
2023-02-01T08:39:33.628Z,4.77
2023-02-01T08:42:35.022Z,4.89
2023-02-01T08:45:03.321Z,4.94
2023-02-01T08:47:31.280Z,4.75
2023-02-01T08:49:59.332Z,4.80
2023-02-01T08:52:27.205Z,4.89
2023-02-01T08:54:55.236Z,4.86
2023-02-01T08:57:24.587Z,4.95
2023-02-01T08:59:52.678Z,4.98
2023-02-01T09:02:21.090Z,4.95
2023-02-01T09:04:49.197Z,5.01
2023-02-01T09:07:17.824Z,4.93
2023-02-01T09:09:46.209Z,4.99
2023-02-01T09:12:14.127Z,4.99
2023-02-01T09:14:43.492Z,4.94
2023-02-01T09:17:11.761Z,4.96
2023-02-01T09:19:42.156Z,4.99
2023-02-01T09:22:11.453Z,5.10
2023-02-01T09:24:39.320Z,5.03
2023-02-01T09:27:07.288Z,5.06
2023-02-01T09:29:36.422Z,4.97
2023-02-01T09:32:07.547Z,5.10
2023-02-01T09:34:35.553Z,4.85
2023-02-01T09:37:03.696Z,5.14
2023-02-01T09:39:32.224Z,5.23
2023-02-01T09:42:05.013Z,5.11
2023-02-01T09:44:44.867Z,5.13
2023-02-01T09:47:18.306Z,5.07
2023-02-01T09:49:53.793Z,5.23
2023-02-01T09:52:25.283Z,5.26
2023-02-01T09:54:59.355Z,5.28
2023-02-01T09:57:38.283Z,5.14
2023-02-01T10:00:16.824Z,5.10
2023-02-01T10:02:46.191Z,5.18
2023-02-01T10:05:15.953Z,5.19
2023-02-01T10:07:47.376Z,5.20
2023-02-01T10:10:17.283Z,5.13
2023-02-01T10:13:10.065Z,5.19
2023-02-01T10:15:54.089Z,5.17
2023-02-01T10:18:54.383Z,5.01
2023-02-01T10:21:30.305Z,5.15
2023-02-01T10:24:17.353Z,5.06
2023-02-01T10:26:47.511Z,4.99
2023-02-01T10:29:18.053Z,5.04
2023-02-01T10:31:46.134Z,4.90
2023-02-01T10:34:20.505Z,5.02
2023-02-01T10:36:53.483Z,4.96
2023-02-01T10:39:21.782Z,4.97
2023-02-01T10:41:49.827Z,4.95
2023-02-01T10:44:19.169Z,5.09
2023-02-01T10:46:47.214Z,5.18
2023-02-01T10:49:18.977Z,4.97
2023-02-01T10:51:50.364Z,5.14
2023-02-01T10:54:21.456Z,5.02
2023-02-01T10:56:49.951Z,4.96
2023-02-01T10:59:20.080Z,5.05
2023-02-01T11:01:49.275Z,4.89
2023-02-01T11:04:18.866Z,4.95
2023-02-01T11:06:51.243Z,5.05
2023-02-01T11:09:26.818Z,5.02
2023-02-01T11:12:01.458Z,5.12
2023-02-01T11:14:40.185Z,5.12
2023-02-01T11:17:27.307Z,5.17
2023-02-01T11:20:07.188Z,5.28
2023-02-01T11:22:35.361Z,5.26
2023-02-01T11:25:04.007Z,5.17
2023-02-01T11:27:33.364Z,5.22
2023-02-01T11:30:03.218Z,5.11
2023-02-01T11:32:31.282Z,5.24
2023-02-01T11:35:03.105Z,5.32
2023-02-01T11:37:32.700Z,5.00
2023-02-01T11:40:01.483Z,5.11
2023-02-01T11:42:29.985Z,4.99
2023-02-01T11:45:21.835Z,5.21
2023-02-01T11:47:50.593Z,5.26
2023-02-01T11:50:22.633Z,5.44
2023-02-01T11:53:17.214Z,5.34
2023-02-01T11:55:55.055Z,5.38
2023-02-01T11:58:38.443Z,5.24
2023-02-01T12:01:15.541Z,5.45
2023-02-01T12:04:15.207Z,5.30
2023-02-01T12:06:50.710Z,5.39
2023-02-01T12:09:34.346Z,5.43
2023-02-01T12:12:08.732Z,5.52
2023-02-01T12:14:49.475Z,5.37
2023-02-01T12:17:29.181Z,5.41
2023-02-01T12:20:06.143Z,5.40
2023-02-01T12:22:44.213Z,5.28
2023-02-01T12:25:23.109Z,5.36
2023-02-01T12:28:16.610Z,5.47
2023-02-01T12:31:15.592Z,5.23
2023-02-01T12:33:53.088Z,5.43
2023-02-01T12:36:23.981Z,5.31
2023-02-01T12:38:57.647Z,5.49
2023-02-01T12:41:36.905Z,5.28
2023-02-01T12:44:08.753Z,5.23
2023-02-01T12:46:39.571Z,5.26
2023-02-01T12:49:09.261Z,5.36
2023-02-01T12:51:39.048Z,5.37
2023-02-01T12:54:12.320Z,5.38
2023-02-01T12:56:44.732Z,5.46
2023-02-01T12:59:20.178Z,5.31
2023-02-01T13:01:53.444Z,5.50
2023-02-01T13:04:23.361Z,5.66
2023-02-01T13:06:57.808Z,5.41
2023-02-01T13:09:37.804Z,5.50
2023-02-01T13:12:08.782Z,5.42
2023-02-01T13:14:40.121Z,5.53
2023-02-01T13:17:25.738Z,5.57
2023-02-01T13:19:55.687Z,5.67
2023-02-01T13:22:26.489Z,5.68
2023-02-01T13:24:57.163Z,5.65
2023-02-01T13:27:25.352Z,5.53
2023-02-01T13:30:01.360Z,5.38
2023-02-01T13:33:50.789Z,5.58
2023-02-01T13:36:04.341Z,5.56
2023-02-01T13:38:51.959Z,5.55
2023-02-01T13:41:28.916Z,5.54
2023-02-01T13:43:58.013Z,5.53
2023-02-01T13:46:27.733Z,5.54
2023-02-01T13:49:00.379Z,5.58
2023-02-01T13:51:36.268Z,5.61
2023-02-01T13:54:07.668Z,5.58
2023-02-01T13:56:51.030Z,5.48
2023-02-01T13:59:39.044Z,5.50
2023-02-01T14:02:40.376Z,5.49
2023-02-01T14:05:09.849Z,5.50
2023-02-01T14:07:37.765Z,5.61
2023-02-01T14:10:38.861Z,5.53
2023-02-01T14:13:15.004Z,5.47
2023-02-01T14:15:43.332Z,5.58
2023-02-01T14:18:46.726Z,5.43
2023-02-01T14:21:23.184Z,5.22
2023-02-01T14:23:58.512Z,5.33
2023-02-01T14:26:27.562Z,5.48
2023-02-01T14:28:59.933Z,5.57
2023-02-01T14:31:42.129Z,5.46
2023-02-01T14:34:19.215Z,5.45
2023-02-01T14:36:53.221Z,5.56
2023-02-01T14:39:29.297Z,5.48
2023-02-01T14:41:59.783Z,5.53
2023-02-01T14:44:36.938Z,5.58
2023-02-01T14:47:12.714Z,5.54
2023-02-01T14:49:45.267Z,5.69
2023-02-01T14:52:19.106Z,5.76
2023-02-01T14:54:48.425Z,5.86
2023-02-01T14:57:18.342Z,5.79
2023-02-01T14:59:48.699Z,5.75
2023-02-01T15:02:23.787Z,5.85
2023-02-01T15:04:56.120Z,5.85
2023-02-01T15:07:25.133Z,5.93
2023-02-01T15:09:53.211Z,5.93
2023-02-01T15:12:27.965Z,5.87
2023-02-01T15:15:13.295Z,5.95
2023-02-01T15:17:41.870Z,6.06
2023-02-01T15:20:28.422Z,5.97
2023-02-01T15:23:02.403Z,6.03
2023-02-01T15:25:32.121Z,5.96
2023-02-01T15:28:00.113Z,6.07
2023-02-01T15:30:30.994Z,6.06
2023-02-01T15:33:09.029Z,6.06
2023-02-01T15:35:44.226Z,6.14
2023-02-01T15:38:34.660Z,6.02
2023-02-01T15:41:03.993Z,6.16
2023-02-01T15:43:33.413Z,6.02
2023-02-01T15:46:04.330Z,6.08
2023-02-01T15:48:36.794Z,6.15
2023-02-01T15:51:05.036Z,6.06
2023-02-01T15:53:33.861Z,6.20
2023-02-01T15:56:03.454Z,6.10
2023-02-01T15:58:32.861Z,6.04
2023-02-01T16:01:02.720Z,6.10
2023-02-01T16:03:37.894Z,6.11
2023-02-01T16:06:07.225Z,6.11
2023-02-01T16:08:35.781Z,6.14
2023-02-01T16:11:23.316Z,6.20
2023-02-01T16:13:55.001Z,6.13
2023-02-01T16:16:27.442Z,6.20
2023-02-01T16:19:02.515Z,6.26
2023-02-01T16:21:36.319Z,6.15
2023-02-01T16:24:05.523Z,6.28
2023-02-01T16:26:36.394Z,6.10
2023-02-01T16:29:07.214Z,6.19
2023-02-01T16:31:37.394Z,6.19
2023-02-01T16:34:07.399Z,6.18
2023-02-01T16:36:35.570Z,6.29
2023-02-01T16:39:04.607Z,6.24
2023-02-01T16:41:32.918Z,6.28
2023-02-01T16:44:04.241Z,6.38
2023-02-01T16:46:34.553Z,6.45
2023-02-01T16:49:03.472Z,6.24
2023-02-01T16:51:33.883Z,6.15
2023-02-01T16:54:01.817Z,6.16
2023-02-01T16:56:32.262Z,6.17
2023-02-01T16:59:00.505Z,6.14
2023-02-01T17:01:28.573Z,6.07
2023-02-01T17:03:58.106Z,6.17
2023-02-01T17:06:26.915Z,6.16
2023-02-01T17:08:58.941Z,6.08
2023-02-01T17:11:27.310Z,6.13
2023-02-01T17:13:57.017Z,6.11
2023-02-01T17:16:34.287Z,6.04
2023-02-01T17:19:05.503Z,6.09
2023-02-01T17:21:39.648Z,6.18
2023-02-01T17:24:09.112Z,6.14
2023-02-01T17:26:38.788Z,6.14
2023-02-01T17:29:06.954Z,6.18
2023-02-01T17:31:35.423Z,6.14
2023-02-01T17:34:03.413Z,6.13
2023-02-01T17:36:31.584Z,6.13
2023-02-01T17:39:06.202Z,6.14
2023-02-01T17:41:36.255Z,6.18
2023-02-01T17:44:04.384Z,6.17
2023-02-01T17:46:32.541Z,6.25
2023-02-01T17:49:01.522Z,6.30
2023-02-01T17:51:29.569Z,6.25
2023-02-01T17:53:57.492Z,6.31
2023-02-01T17:56:26.762Z,6.32
2023-02-01T17:58:56.996Z,6.27
2023-02-01T18:01:25.658Z,6.26
2023-02-01T18:03:53.618Z,6.29
2023-02-01T18:06:27.405Z,6.29
2023-02-01T18:08:55.394Z,6.26
2023-02-01T18:11:24.000Z,6.29
2023-02-01T18:13:53.087Z,6.32
2023-02-01T18:16:23.356Z,6.21
2023-02-01T18:18:51.292Z,6.29
2023-02-01T18:21:19.858Z,6.31
2023-02-01T18:23:48.225Z,6.30
2023-02-01T18:26:17.400Z,6.32
2023-02-01T18:28:45.376Z,6.28
2023-02-01T18:31:22.286Z,6.34
2023-02-01T18:33:51.747Z,6.19
2023-02-01T18:36:19.735Z,6.34
2023-02-01T18:38:48.131Z,6.33
2023-02-01T18:41:16.930Z,6.36
2023-02-01T18:43:44.876Z,6.37
2023-02-01T18:46:13.097Z,6.28
2023-02-01T18:48:41.558Z,6.29
2023-02-01T18:51:11.861Z,6.27
2023-02-01T18:53:39.861Z,6.34
2023-02-01T18:56:08.901Z,6.25
2023-02-01T18:58:37.130Z,6.27
2023-02-01T19:01:07.729Z,6.34
2023-02-01T19:03:42.767Z,6.39
2023-02-01T19:06:15.522Z,6.32
2023-02-01T19:08:45.698Z,6.36
2023-02-01T19:11:13.611Z,6.36
2023-02-01T19:13:41.846Z,6.29
2023-02-01T19:16:10.191Z,6.39
2023-02-01T19:18:38.859Z,6.30
2023-02-01T19:21:07.662Z,6.36
2023-02-01T19:23:37.239Z,6.27
2023-02-01T19:26:05.332Z,6.27
2023-02-01T19:28:33.194Z,6.29
2023-02-01T19:31:04.636Z,6.29
2023-02-01T19:33:32.765Z,6.32
2023-02-01T19:36:01.367Z,6.31
2023-02-01T19:38:29.251Z,6.33
2023-02-01T19:40:58.878Z,6.40
2023-02-01T19:43:26.810Z,6.36
2023-02-01T19:45:54.777Z,6.34
2023-02-01T19:48:22.768Z,6.48
2023-02-01T19:50:50.657Z,6.27
2023-02-01T19:53:19.396Z,6.35
2023-02-01T19:55:47.847Z,6.34
2023-02-01T19:58:17.221Z,6.40
2023-02-01T20:00:44.563Z,6.22
2023-02-01T20:03:12.505Z,6.25
2023-02-01T20:05:40.436Z,6.27
2023-02-01T20:08:08.337Z,6.22
2023-02-01T20:10:36.311Z,6.16
2023-02-01T20:13:04.243Z,6.20
2023-02-01T20:15:33.890Z,6.25
2023-02-01T20:18:02.669Z,6.13
2023-02-01T20:20:30.672Z,6.04
2023-02-01T20:22:58.642Z,6.01
2023-02-01T20:25:26.585Z,6.07
2023-02-01T20:27:55.450Z,6.09
2023-02-01T20:30:23.662Z,6.06
2023-02-01T20:32:53.289Z,6.03
2023-02-01T20:35:22.082Z,5.91
2023-02-01T20:37:51.797Z,5.93
2023-02-01T20:40:20.140Z,5.78
2023-02-01T20:42:48.432Z,4.87
2023-02-01T20:45:16.712Z,3.85
2023-02-01T20:47:44.672Z,3.20
2023-02-01T20:50:14.340Z,2.85
2023-02-01T20:52:42.284Z,2.68
2023-02-01T20:55:10.599Z,2.61
2023-02-01T20:57:38.487Z,2.59
2023-02-01T21:00:10.106Z,2.67
2023-02-01T21:02:38.028Z,2.93
2023-02-01T21:05:06.599Z,2.86
2023-02-01T21:07:35.884Z,2.90
2023-02-01T21:10:04.097Z,2.97
2023-02-01T21:12:31.996Z,3.06
2023-02-01T21:15:00.233Z,3.15
2023-02-01T21:17:28.583Z,3.12
2023-02-01T21:19:56.541Z,3.11
2023-02-01T21:22:24.468Z,3.31
2023-02-01T21:24:53.776Z,3.29
2023-02-01T21:27:21.959Z,3.23
2023-02-01T21:29:49.862Z,3.24
2023-02-01T21:32:17.959Z,3.33
2023-02-01T21:34:45.823Z,3.33
2023-02-01T21:37:13.973Z,3.27
2023-02-01T21:39:42.002Z,3.30
2023-02-01T21:42:13.961Z,3.27
2023-02-01T21:44:42.731Z,3.27
2023-02-01T21:47:11.067Z,3.42
2023-02-01T21:49:39.321Z,3.62
2023-02-01T21:52:07.777Z,3.77
2023-02-01T21:54:35.664Z,3.92
2023-02-01T21:57:03.724Z,3.99
2023-02-01T21:59:33.080Z,4.12
2023-02-01T22:02:01.037Z,4.24
2023-02-01T22:04:29.244Z,4.38
2023-02-01T22:06:57.202Z,4.41
2023-02-01T22:09:25.992Z,4.51
2023-02-01T22:11:54.956Z,4.61
2023-02-01T22:14:23.051Z,4.60
2023-02-01T22:16:52.430Z,4.63
2023-02-01T22:19:20.504Z,4.58
2023-02-01T22:21:49.031Z,4.61
2023-02-01T22:24:18.228Z,4.66
2023-02-01T22:26:46.221Z,4.76
2023-02-01T22:29:14.763Z,4.83
2023-02-01T22:31:43.078Z,4.87
2023-02-01T22:34:13.067Z,4.61
2023-02-01T22:36:41.105Z,4.16
2023-02-01T22:39:09.055Z,3.70
2023-02-01T22:41:36.986Z,3.59
2023-02-01T22:44:05.363Z,3.58
2023-02-01T22:46:33.440Z,3.53
2023-02-01T22:49:01.428Z,3.41
2023-02-01T22:51:32.037Z,3.52
2023-02-01T22:54:00.238Z,3.51
2023-02-01T22:56:30.273Z,3.45
2023-02-01T22:58:59.107Z,3.49
2023-02-01T23:01:27.019Z,3.43
2023-02-01T23:03:57.531Z,3.46
2023-02-01T23:06:25.900Z,3.41
2023-02-01T23:08:57.443Z,3.34
2023-02-01T23:11:25.678Z,3.30
2023-02-01T23:13:53.555Z,3.53
2023-02-01T23:16:21.880Z,3.47
2023-02-01T23:18:49.859Z,3.51
2023-02-01T23:21:20.502Z,3.64
2023-02-01T23:23:48.760Z,3.60
2023-02-01T23:26:18.234Z,3.74
2023-02-01T23:28:46.230Z,3.79
2023-02-01T23:31:15.110Z,3.74
2023-02-01T23:33:45.388Z,3.50
2023-02-01T23:36:16.005Z,3.55
2023-02-01T23:38:44.094Z,3.43
2023-02-01T23:41:12.413Z,3.48
2023-02-01T23:44:00.129Z,3.51
2023-02-01T23:46:30.963Z,3.48
2023-02-01T23:48:59.474Z,3.60
2023-02-01T23:51:27.470Z,3.59
2023-02-01T23:53:55.396Z,3.64
2023-02-01T23:56:24.877Z,3.63
2023-02-01T23:58:54.552Z,3.71
